sensor_id;sensor_type;location;lat;lon;timestamp;pressure;altitude;pressure_sealevel;temperature;humidity
15914;BME280;8055;51.930;8.840;2022-09-16T00:00:20;98817.94;;;12.30;100.00
15914;BME280;8055;51.930;8.840;2022-09-16T00:02:46;98818.16;;;12.29;100.00
15914;BME280;8055;51.930;8.840;2022-09-16T00:05:12;98820.25;;;12.26;100.00
15914;BME280;8055;51.930;8.840;2022-09-16T00:07:37;98821.91;;;12.27;100.00
15914;BME280;8055;51.930;8.840;2022-09-16T00:10:04;98820.25;;;12.26;100.00
15914;BME280;8055;51.930;8.840;2022-09-16T00:12:30;98816.06;;;12.31;100.00
15914;BME280;8055;51.930;8.840;2022-09-16T00:14:56;98821.50;;;12.31;100.00
15914;BME280;8055;51.930;8.840;2022-09-16T00:17:21;98816.88;;;12.31;100.00
15914;BME280;8055;51.930;8.840;2022-09-16T00:19:47;98817.31;;;12.28;100.00
15914;BME280;8055;51.930;8.840;2022-09-16T00:22:13;98816.28;;;12.29;100.00
15914;BME280;8055;51.930;8.840;2022-09-16T00:24:39;98808.31;;;12.27;100.00
15914;BME280;8055;51.930;8.840;2022-09-16T00:27:04;98804.13;;;12.32;100.00
15914;BME280;8055;51.930;8.840;2022-09-16T00:29:30;98809.38;;;12.26;100.00
15914;BME280;8055;51.930;8.840;2022-09-16T00:31:55;98807.69;;;12.25;100.00
15914;BME280;8055;51.930;8.840;2022-09-16T00:34:21;98809.38;;;12.20;100.00
15914;BME280;8055;51.930;8.840;2022-09-16T00:36:46;98798.47;;;12.20;100.00
15914;BME280;8055;51.930;8.840;2022-09-16T00:39:11;98796.78;;;12.19;100.00
15914;BME280;8055;51.930;8.840;2022-09-16T00:41:37;98795.34;;;12.16;100.00
15914;BME280;8055;51.930;8.840;2022-09-16T00:44:05;98791.75;;;12.16;100.00
15914;BME280;8055;51.930;8.840;2022-09-16T00:46:38;98797.00;;;12.17;100.00
15914;BME280;8055;51.930;8.840;2022-09-16T00:49:18;98790.09;;;12.15;100.00
15914;BME280;8055;51.930;8.840;2022-09-16T00:51:46;98800.97;;;12.15;100.00
15914;BME280;8055;51.930;8.840;2022-09-16T00:54:14;98806.00;;;12.18;100.00
15914;BME280;8055;51.930;8.840;2022-09-16T00:56:44;98806.66;;;12.20;100.00
15914;BME280;8055;51.930;8.840;2022-09-16T00:59:18;98797.66;;;12.19;100.00
15914;BME280;8055;51.930;8.840;2022-09-16T01:01:45;98808.09;;;12.16;100.00
15914;BME280;8055;51.930;8.840;2022-09-16T01:04:18;98806.63;;;12.26;100.00
15914;BME280;8055;51.930;8.840;2022-09-16T01:06:46;98801.63;;;12.17;100.00
15914;BME280;8055;51.930;8.840;2022-09-16T01:09:11;98795.53;;;12.15;100.00
15914;BME280;8055;51.930;8.840;2022-09-16T01:11:37;98796.78;;;12.12;100.00
15914;BME280;8055;51.930;8.840;2022-09-16T01:14:03;98788.84;;;12.11;100.00
15914;BME280;8055;51.930;8.840;2022-09-16T01:17:20;98784.66;;;12.08;100.00
15914;BME280;8055;51.930;8.840;2022-09-16T01:31:22;98807.06;;;12.10;100.00
15914;BME280;8055;51.930;8.840;2022-09-16T01:34:15;98798.91;;;12.10;100.00
15914;BME280;8055;51.930;8.840;2022-09-16T01:39:29;98793.03;;;12.13;100.00
15914;BME280;8055;51.930;8.840;2022-09-16T01:42:17;98800.78;;;12.10;100.00
15914;BME280;8055;51.930;8.840;2022-09-16T01:45:02;98812.09;;;12.07;100.00
15914;BME280;8055;51.930;8.840;2022-09-16T01:47:39;98809.78;;;12.03;100.00
15914;BME280;8055;51.930;8.840;2022-09-16T01:55:31;98787.78;;;12.05;100.00
15914;BME280;8055;51.930;8.840;2022-09-16T01:58:10;98792.00;;;12.08;100.00
15914;BME280;8055;51.930;8.840;2022-09-16T02:00:40;98795.53;;;12.08;100.00
15914;BME280;8055;51.930;8.840;2022-09-16T02:03:28;98795.94;;;12.12;100.00
15914;BME280;8055;51.930;8.840;2022-09-16T02:05:58;98800.78;;;12.10;100.00
15914;BME280;8055;51.930;8.840;2022-09-16T02:08:30;98791.16;;;12.07;100.00
15914;BME280;8055;51.930;8.840;2022-09-16T02:10:58;98796.38;;;12.09;100.00
15914;BME280;8055;51.930;8.840;2022-09-16T02:13:41;98786.13;;;12.04;100.00
15914;BME280;8055;51.930;8.840;2022-09-16T02:16:12;98798.91;;;12.03;100.00
15914;BME280;8055;51.930;8.840;2022-09-16T02:18:41;98798.25;;;12.01;100.00
15914;BME280;8055;51.930;8.840;2022-09-16T02:21:10;98793.44;;;11.97;100.00
15914;BME280;8055;51.930;8.840;2022-09-16T02:23:49;98792.59;;;12.03;100.00
15914;BME280;8055;51.930;8.840;2022-09-16T02:26:18;98788.81;;;11.91;100.00
15914;BME280;8055;51.930;8.840;2022-09-16T02:28:47;98794.06;;;11.92;100.00
15914;BME280;8055;51.930;8.840;2022-09-16T02:31:12;98791.34;;;11.86;100.00
15914;BME280;8055;51.930;8.840;2022-09-16T02:33:44;98796.38;;;11.95;100.00
15914;BME280;8055;51.930;8.840;2022-09-16T02:36:19;98794.25;;;11.91;100.00
15914;BME280;8055;51.930;8.840;2022-09-16T02:39:02;98789.47;;;11.86;100.00
15914;BME280;8055;51.930;8.840;2022-09-16T02:41:30;98790.09;;;11.88;100.00
15914;BME280;8055;51.930;8.840;2022-09-16T02:43:55;98793.63;;;11.82;100.00
15914;BME280;8055;51.930;8.840;2022-09-16T02:49:02;98799.28;;;11.87;100.00
15914;BME280;8055;51.930;8.840;2022-09-16T02:51:31;98796.53;;;11.80;100.00
15914;BME280;8055;51.930;8.840;2022-09-16T02:54:00;98802.19;;;11.79;100.00
15914;BME280;8055;51.930;8.840;2022-09-16T02:56:35;98794.66;;;11.81;100.00
15914;BME280;8055;51.930;8.840;2022-09-16T02:59:03;98795.69;;;11.80;100.00
15914;BME280;8055;51.930;8.840;2022-09-16T03:01:32;98794.22;;;11.77;100.00
15914;BME280;8055;51.930;8.840;2022-09-16T03:04:00;98790.03;;;11.75;100.00
15914;BME280;8055;51.930;8.840;2022-09-16T03:06:26;98791.72;;;11.76;100.00
15914;BME280;8055;51.930;8.840;2022-09-16T03:08:55;98795.50;;;11.81;100.00
15914;BME280;8055;51.930;8.840;2022-09-16T03:27:49;98789.69;;;11.91;100.00
15914;BME280;8055;51.930;8.840;2022-09-16T03:30:15;98779.78;;;11.84;100.00
15914;BME280;8055;51.930;8.840;2022-09-16T03:32:49;98781.91;;;11.81;100.00
15914;BME280;8055;51.930;8.840;2022-09-16T03:35:38;98778.81;;;11.91;100.00
15914;BME280;8055;51.930;8.840;2022-09-16T03:38:05;98779.38;;;11.80;100.00
15914;BME280;8055;51.930;8.840;2022-09-16T03:40:32;98786.47;;;11.81;100.00
15914;BME280;8055;51.930;8.840;2022-09-16T03:42:58;98777.06;;;11.77;100.00
15914;BME280;8055;51.930;8.840;2022-09-16T03:45:23;98775.41;;;11.76;100.00
15914;BME280;8055;51.930;8.840;2022-09-16T03:47:51;98774.13;;;11.72;100.00
15914;BME280;8055;51.930;8.840;2022-09-16T03:50:18;98769.97;;;11.76;100.00
15914;BME280;8055;51.930;8.840;2022-09-16T03:52:44;98769.13;;;11.75;100.00
15914;BME280;8055;51.930;8.840;2022-09-16T03:55:09;98775.41;;;11.76;100.00
15914;BME280;8055;51.930;8.840;2022-09-16T03:57:35;98776.25;;;11.76;100.00
15914;BME280;8055;51.930;8.840;2022-09-16T04:00:02;98767.84;;;11.78;100.00
15914;BME280;8055;51.930;8.840;2022-09-16T04:02:28;98774.75;;;11.74;100.00
15914;BME280;8055;51.930;8.840;2022-09-16T04:04:53;98782.50;;;11.70;100.00
15914;BME280;8055;51.930;8.840;2022-09-16T04:07:19;98783.75;;;11.68;100.00
15914;BME280;8055;51.930;8.840;2022-09-16T04:09:44;98779.38;;;11.73;100.00
15914;BME280;8055;51.930;8.840;2022-09-16T04:12:10;98779.38;;;11.67;100.00
15914;BME280;8055;51.930;8.840;2022-09-16T04:14:35;98780.84;;;11.69;100.00
15914;BME280;8055;51.930;8.840;2022-09-16T04:17:01;98774.94;;;11.66;100.00
15914;BME280;8055;51.930;8.840;2022-09-16T04:19:27;98769.97;;;11.69;100.00
15914;BME280;8055;51.930;8.840;2022-09-16T04:21:52;98765.13;;;11.78;100.00
15914;BME280;8055;51.930;8.840;2022-09-16T04:24:18;98766.19;;;11.70;100.00
15914;BME280;8055;51.930;8.840;2022-09-16T04:26:43;98772.47;;;11.71;100.00
15914;BME280;8055;51.930;8.840;2022-09-16T04:29:09;98767.44;;;11.68;100.00
15914;BME280;8055;51.930;8.840;2022-09-16T04:31:34;98779.16;;;11.68;100.00
15914;BME280;8055;51.930;8.840;2022-09-16T04:34:01;98767.19;;;11.56;100.00
15914;BME280;8055;51.930;8.840;2022-09-16T04:36:26;98765.78;;;11.67;100.00
15914;BME280;8055;51.930;8.840;2022-09-16T04:38:52;98759.28;;;11.61;100.00
15914;BME280;8055;51.930;8.840;2022-09-16T04:41:19;98772.22;;;11.59;100.00
15914;BME280;8055;51.930;8.840;2022-09-16T04:43:46;98765.53;;;11.55;100.00
15914;BME280;8055;51.930;8.840;2022-09-16T04:46:14;98765.75;;;11.53;100.00
15914;BME280;8055;51.930;8.840;2022-09-16T04:48:39;98754.66;;;11.62;100.00
15914;BME280;8055;51.930;8.840;2022-09-16T04:51:09;98757.78;;;11.58;100.00
15914;BME280;8055;51.930;8.840;2022-09-16T04:53:37;98736.47;;;11.55;100.00
15914;BME280;8055;51.930;8.840;2022-09-16T04:58:32;98760.94;;;11.55;100.00
15914;BME280;8055;51.930;8.840;2022-09-16T05:01:08;98762.16;;;11.53;100.00
15914;BME280;8055;51.930;8.840;2022-09-16T05:03:40;98769.50;;;11.52;100.00
15914;BME280;8055;51.930;8.840;2022-09-16T05:06:11;98768.25;;;11.48;100.00
15914;BME280;8055;51.930;8.840;2022-09-16T05:08:38;98760.31;;;11.53;100.00
15914;BME280;8055;51.930;8.840;2022-09-16T05:11:06;98757.38;;;11.48;100.00
15914;BME280;8055;51.930;8.840;2022-09-16T05:13:31;98756.72;;;11.46;100.00
15914;BME280;8055;51.930;8.840;2022-09-16T05:16:04;98744.00;;;11.53;100.00
15914;BME280;8055;51.930;8.840;2022-09-16T05:18:31;98751.28;;;11.53;100.00
15914;BME280;8055;51.930;8.840;2022-09-16T05:20:58;98750.69;;;11.51;100.00
15914;BME280;8055;51.930;8.840;2022-09-16T05:23:24;98758.22;;;11.55;100.00
15914;BME280;8055;51.930;8.840;2022-09-16T05:25:49;98758.03;;;11.57;100.00
15914;BME280;8055;51.930;8.840;2022-09-16T05:28:15;98757.59;;;11.53;100.00
15914;BME280;8055;51.930;8.840;2022-09-16T05:30:40;98760.72;;;11.50;100.00
15914;BME280;8055;51.930;8.840;2022-09-16T05:33:05;98764.91;;;11.53;100.00
15914;BME280;8055;51.930;8.840;2022-09-16T05:35:31;98770.34;;;11.53;100.00
15914;BME280;8055;51.930;8.840;2022-09-16T05:37:56;98772.22;;;11.59;100.00
15914;BME280;8055;51.930;8.840;2022-09-16T05:40:21;98763.66;;;11.55;100.00
15914;BME280;8055;51.930;8.840;2022-09-16T05:42:49;98774.13;;;11.58;100.00
15914;BME280;8055;51.930;8.840;2022-09-16T05:45:15;98773.28;;;11.58;100.00
15914;BME280;8055;51.930;8.840;2022-09-16T05:47:40;98775.34;;;11.56;100.00
15914;BME280;8055;51.930;8.840;2022-09-16T05:50:06;98769.72;;;11.57;100.00
15914;BME280;8055;51.930;8.840;2022-09-16T05:52:32;98771.63;;;11.64;100.00
15914;BME280;8055;51.930;8.840;2022-09-16T05:54:57;98769.09;;;11.62;100.00
15914;BME280;8055;51.930;8.840;2022-09-16T05:57:22;98776.00;;;11.65;100.00
15914;BME280;8055;51.930;8.840;2022-09-16T05:59:48;98774.34;;;11.64;100.00
15914;BME280;8055;51.930;8.840;2022-09-16T06:02:13;98773.28;;;11.65;100.00
15914;BME280;8055;51.930;8.840;2022-09-16T06:04:39;98773.72;;;11.68;100.00
15914;BME280;8055;51.930;8.840;2022-09-16T06:07:04;98779.38;;;11.67;100.00
15914;BME280;8055;51.930;8.840;2022-09-16T06:09:31;98771.41;;;11.72;100.00
15914;BME280;8055;51.930;8.840;2022-09-16T06:11:56;98763.06;;;11.73;100.00
15914;BME280;8055;51.930;8.840;2022-09-16T06:14:22;98765.53;;;11.68;100.00
15914;BME280;8055;51.930;8.840;2022-09-16T06:16:48;98759.91;;;11.70;100.00
15914;BME280;8055;51.930;8.840;2022-09-16T06:19:15;98768.91;;;11.70;100.00
15914;BME280;8055;51.930;8.840;2022-09-16T06:21:42;98765.34;;;11.70;100.00
15914;BME280;8055;51.930;8.840;2022-09-16T06:24:08;98749.88;;;11.70;100.00
15914;BME280;8055;51.930;8.840;2022-09-16T06:26:36;98764.94;;;11.73;100.00
15914;BME280;8055;51.930;8.840;2022-09-16T06:29:01;98758.25;;;11.75;100.00
15914;BME280;8055;51.930;8.840;2022-09-16T06:31:27;98765.63;;;11.88;100.00
15914;BME280;8055;51.930;8.840;2022-09-16T06:33:54;98760.59;;;11.92;100.00
15914;BME280;8055;51.930;8.840;2022-09-16T06:36:20;98759.75;;;11.91;100.00
15914;BME280;8055;51.930;8.840;2022-09-16T06:38:47;98767.09;;;11.97;100.00
15914;BME280;8055;51.930;8.840;2022-09-16T06:41:13;98767.91;;;11.98;100.00
15914;BME280;8055;51.930;8.840;2022-09-16T06:43:39;98769.59;;;11.92;100.00
15914;BME280;8055;51.930;8.840;2022-09-16T06:46:17;98770.00;;;11.96;100.00
15914;BME280;8055;51.930;8.840;2022-09-16T06:48:44;98782.13;;;12.00;100.00
15914;BME280;8055;51.930;8.840;2022-09-16T06:51:16;98794.91;;;11.99;100.00
15914;BME280;8055;51.930;8.840;2022-09-16T06:53:42;98787.78;;;11.92;100.00
15914;BME280;8055;51.930;8.840;2022-09-16T06:56:10;98793.84;;;11.87;100.00
15914;BME280;8055;51.930;8.840;2022-09-16T06:58:37;98789.84;;;11.76;100.00
15914;BME280;8055;51.930;8.840;2022-09-16T07:01:08;98784.81;;;11.73;100.00
15914;BME280;8055;51.930;8.840;2022-09-16T07:03:39;98784.81;;;11.67;100.00
15914;BME280;8055;51.930;8.840;2022-09-16T07:06:05;98782.50;;;11.64;100.00
15914;BME280;8055;51.930;8.840;2022-09-16T07:08:31;98773.91;;;11.60;100.00
15914;BME280;8055;51.930;8.840;2022-09-16T07:10:58;98762.00;;;11.61;100.00
15914;BME280;8055;51.930;8.840;2022-09-16T07:13:24;98768.25;;;11.68;100.00
15914;BME280;8055;51.930;8.840;2022-09-16T07:15:50;98769.97;;;11.69;100.00
15914;BME280;8055;51.930;8.840;2022-09-16T07:18:16;98775.81;;;11.79;100.00
15914;BME280;8055;51.930;8.840;2022-09-16T07:20:41;98776.09;;;11.85;100.00
15914;BME280;8055;51.930;8.840;2022-09-16T07:23:06;98784.25;;;11.91;100.00
15914;BME280;8055;51.930;8.840;2022-09-16T07:25:32;98785.28;;;11.97;100.00
15914;BME280;8055;51.930;8.840;2022-09-16T07:27:57;98786.13;;;12.04;100.00
15914;BME280;8055;51.930;8.840;2022-09-16T07:30:22;98789.91;;;12.10;100.00
15914;BME280;8055;51.930;8.840;2022-09-16T07:32:48;98790.72;;;12.17;100.00
15914;BME280;8055;51.930;8.840;2022-09-16T07:35:13;98792.19;;;12.19;100.00
15914;BME280;8055;51.930;8.840;2022-09-16T07:37:39;98795.13;;;12.18;100.00
15914;BME280;8055;51.930;8.840;2022-09-16T07:40:04;98796.78;;;12.19;100.00
15914;BME280;8055;51.930;8.840;2022-09-16T07:42:30;98797.22;;;12.22;100.00
15914;BME280;8055;51.930;8.840;2022-09-16T07:44:55;98802.25;;;12.32;100.00
15914;BME280;8055;51.930;8.840;2022-09-16T07:47:21;98795.75;;;12.26;100.00
15914;BME280;8055;51.930;8.840;2022-09-16T07:49:47;98798.88;;;12.30;100.00
15914;BME280;8055;51.930;8.840;2022-09-16T07:52:12;98794.91;;;12.39;100.00
15914;BME280;8055;51.930;8.840;2022-09-16T07:54:38;98813.94;;;12.46;100.00
15914;BME280;8055;51.930;8.840;2022-09-16T07:57:03;98803.03;;;12.59;100.00
15914;BME280;8055;51.930;8.840;2022-09-16T07:59:28;98800.91;;;12.68;100.00
15914;BME280;8055;51.930;8.840;2022-09-16T08:01:54;98800.47;;;12.78;100.00
15914;BME280;8055;51.930;8.840;2022-09-16T08:04:19;98795.84;;;12.91;100.00
15914;BME280;8055;51.930;8.840;2022-09-16T08:06:46;98799.31;;;13.12;100.00
15914;BME280;8055;51.930;8.840;2022-09-16T08:09:12;98807.63;;;13.37;100.00
15914;BME280;8055;51.930;8.840;2022-09-16T08:11:38;98794.94;;;13.56;100.00
15914;BME280;8055;51.930;8.840;2022-09-16T08:14:04;98789.38;;;13.76;100.00
15914;BME280;8055;51.930;8.840;2022-09-16T08:16:29;98792.25;;;13.81;100.00
15914;BME280;8055;51.930;8.840;2022-09-16T08:18:56;98795.03;;;13.74;100.00
15914;BME280;8055;51.930;8.840;2022-09-16T08:21:24;98791.09;;;13.70;100.00
15914;BME280;8055;51.930;8.840;2022-09-16T08:23:50;98786.25;;;13.65;100.00
15914;BME280;8055;51.930;8.840;2022-09-16T08:26:17;98797.03;;;13.60;100.00
15914;BME280;8055;51.930;8.840;2022-09-16T08:28:44;98799.72;;;13.67;100.00
15914;BME280;8055;51.930;8.840;2022-09-16T08:31:10;98802.59;;;13.72;100.00
15914;BME280;8055;51.930;8.840;2022-09-16T08:33:38;98803.75;;;13.89;100.00
15914;BME280;8055;51.930;8.840;2022-09-16T08:36:06;98800.34;;;13.94;100.00
15914;BME280;8055;51.930;8.840;2022-09-16T08:38:34;98801.16;;;14.01;100.00
15914;BME280;8055;51.930;8.840;2022-09-16T08:44:26;98800.16;;;14.21;100.00
15914;BME280;8055;51.930;8.840;2022-09-16T08:46:59;98811.91;;;14.21;100.00
15914;BME280;8055;51.930;8.840;2022-09-16T08:49:38;98807.34;;;14.15;100.00
15914;BME280;8055;51.930;8.840;2022-09-16T08:52:11;98804.72;;;14.27;100.00
15914;BME280;8055;51.930;8.840;2022-09-16T08:54:49;98801.69;;;14.35;100.00
15914;BME280;8055;51.930;8.840;2022-09-16T08:57:21;98810.25;;;14.45;100.00
15914;BME280;8055;51.930;8.840;2022-09-16T08:59:50;98807.84;;;14.55;100.00
15914;BME280;8055;51.930;8.840;2022-09-16T09:02:25;98807.84;;;14.55;100.00
15914;BME280;8055;51.930;8.840;2022-09-16T09:04:52;98810.31;;;14.64;100.00
15914;BME280;8055;51.930;8.840;2022-09-16T09:10:24;98813.88;;;14.64;100.00
15914;BME280;8055;51.930;8.840;2022-09-16T09:13:01;98809.16;;;14.71;100.00
15914;BME280;8055;51.930;8.840;2022-09-16T09:15:52;98809.53;;;14.75;100.00
15914;BME280;8055;51.930;8.840;2022-09-16T09:26:51;98809.19;;;15.08;100.00
15914;BME280;8055;51.930;8.840;2022-09-16T09:32:45;98801.56;;;15.28;100.00
15914;BME280;8055;51.930;8.840;2022-09-16T09:40:40;98805.16;;;15.11;100.00
15914;BME280;8055;51.930;8.840;2022-09-16T09:46:08;98801.66;;;14.85;100.00
15914;BME280;8055;51.930;8.840;2022-09-16T09:48:46;98804.16;;;14.87;100.00
15914;BME280;8055;51.930;8.840;2022-09-16T09:53:55;98783.41;;;15.34;100.00
15914;BME280;8055;51.930;8.840;2022-09-16T09:56:28;98773.03;;;15.66;100.00
15914;BME280;8055;51.930;8.840;2022-09-16T10:02:21;98776.56;;;16.27;100.00
15914;BME280;8055;51.930;8.840;2022-09-16T10:04:47;98770.94;;;16.34;100.00
15914;BME280;8055;51.930;8.840;2022-09-16T10:07:15;98774.88;;;16.38;69.10
15914;BME280;8055;51.930;8.840;2022-09-16T10:09:55;98773.31;;;16.42;66.76
15914;BME280;8055;51.930;8.840;2022-09-16T10:12:33;98780.13;;;16.51;67.54
15914;BME280;8055;51.930;8.840;2022-09-16T10:14:59;98762.00;;;16.50;68.06
15914;BME280;8055;51.930;8.840;2022-09-16T10:17:29;98768.81;;;16.48;70.04
15914;BME280;8055;51.930;8.840;2022-09-16T10:20:02;98765.34;;;16.52;71.26
15914;BME280;8055;51.930;8.840;2022-09-16T10:22:34;98769.06;;;16.46;69.16
15914;BME280;8055;51.930;8.840;2022-09-16T10:28:20;98759.03;;;16.05;70.10
15914;BME280;8055;51.930;8.840;2022-09-16T10:30:51;98761.03;;;16.09;70.66
15914;BME280;8055;51.930;8.840;2022-09-16T10:33:24;98758.53;;;16.19;71.35
15914;BME280;8055;51.930;8.840;2022-09-16T10:35:58;98761.06;;;16.45;71.14
15914;BME280;8055;51.930;8.840;2022-09-16T10:38:38;98770.00;;;16.52;66.16
15914;BME280;8055;51.930;8.840;2022-09-16T10:41:16;98765.47;;;16.69;68.28
15914;BME280;8055;51.930;8.840;2022-09-16T10:46:14;98764.75;;;16.50;66.61
15914;BME280;8055;51.930;8.840;2022-09-16T10:48:41;98767.84;;;16.42;64.88
15914;BME280;8055;51.930;8.840;2022-09-16T10:51:21;98757.25;;;16.34;67.13
15914;BME280;8055;51.930;8.840;2022-09-16T10:53:54;98764.13;;;16.01;68.81
15914;BME280;8055;51.930;8.840;2022-09-16T10:56:29;98754.72;;;15.97;69.90
15914;BME280;8055;51.930;8.840;2022-09-16T10:59:10;98757.13;;;16.17;68.69
15914;BME280;8055;51.930;8.840;2022-09-16T11:01:48;98754.16;;;16.18;68.71
15914;BME280;8055;51.930;8.840;2022-09-16T11:13:03;98760.38;;;15.72;68.80
15914;BME280;8055;51.930;8.840;2022-09-16T11:15:55;98745.47;;;15.38;70.43
15914;BME280;8055;51.930;8.840;2022-09-16T11:18:28;98739.41;;;15.36;70.55
15914;BME280;8055;51.930;8.840;2022-09-16T11:32:16;98722.06;;;16.66;65.01
15914;BME280;8055;51.930;8.840;2022-09-16T11:35:11;98715.50;;;16.91;63.58
15914;BME280;8055;51.930;8.840;2022-09-16T11:37:58;98722.19;;;16.83;64.05
15914;BME280;8055;51.930;8.840;2022-09-16T11:40:37;98713.06;;;17.06;65.37
15914;BME280;8055;51.930;8.840;2022-09-16T11:43:52;98715.63;;;16.96;63.95
15914;BME280;8055;51.930;8.840;2022-09-16T11:46:41;98717.06;;;16.63;64.25
15914;BME280;8055;51.930;8.840;2022-09-16T11:57:21;98723.22;;;17.05;61.44
15914;BME280;8055;51.930;8.840;2022-09-16T11:59:54;98717.91;;;17.16;63.08
15914;BME280;8055;51.930;8.840;2022-09-16T12:02:25;98722.63;;;17.03;61.00
15914;BME280;8055;51.930;8.840;2022-09-16T12:05:10;98712.00;;;16.95;61.80
15914;BME280;8055;51.930;8.840;2022-09-16T12:08:05;98720.06;;;17.42;59.51
15914;BME280;8055;51.930;8.840;2022-09-16T12:10:47;98704.03;;;17.51;58.73
15914;BME280;8055;51.930;8.840;2022-09-16T12:13:26;98708.69;;;17.50;57.25
15914;BME280;8055;51.930;8.840;2022-09-16T12:16:01;98710.06;;;17.07;59.05
15914;BME280;8055;51.930;8.840;2022-09-16T12:18:45;98711.22;;;16.83;59.34
15914;BME280;8055;51.930;8.840;2022-09-16T12:21:25;98723.16;;;16.65;60.16
15914;BME280;8055;51.930;8.840;2022-09-16T12:24:02;98761.19;;;16.14;63.76
15914;BME280;8055;51.930;8.840;2022-09-16T12:26:34;98775.25;;;15.46;71.12
15914;BME280;8055;51.930;8.840;2022-09-16T12:32:09;98768.47;;;14.38;81.97
15914;BME280;8055;51.930;8.840;2022-09-16T12:34:53;98777.91;;;14.17;83.07
15914;BME280;8055;51.930;8.840;2022-09-16T12:37:45;98803.31;;;13.93;84.96
15914;BME280;8055;51.930;8.840;2022-09-16T12:40:17;98804.25;;;13.41;89.05
15914;BME280;8055;51.930;8.840;2022-09-16T12:51:15;98784.63;;;12.41;100.00
15914;BME280;8055;51.930;8.840;2022-09-16T12:53:50;98788.41;;;12.34;100.00
15914;BME280;8055;51.930;8.840;2022-09-16T12:56:39;98790.28;;;12.33;100.00
15914;BME280;8055;51.930;8.840;2022-09-16T12:59:40;98780.47;;;12.32;100.00
15914;BME280;8055;51.930;8.840;2022-09-16T13:02:13;98777.31;;;12.22;100.00
15914;BME280;8055;51.930;8.840;2022-09-16T13:04:47;98773.25;;;12.71;100.00
15914;BME280;8055;51.930;8.840;2022-09-16T13:07:25;98764.44;;;13.34;100.00
15914;BME280;8055;51.930;8.840;2022-09-16T13:10:18;98756.06;;;13.67;100.00
15914;BME280;8055;51.930;8.840;2022-09-16T13:12:55;98749.16;;;13.89;100.00
15914;BME280;8055;51.930;8.840;2022-09-16T13:15:32;98738.78;;;14.23;100.00
15914;BME280;8055;51.930;8.840;2022-09-16T13:18:21;98734.78;;;14.51;100.00
15914;BME280;8055;51.930;8.840;2022-09-16T13:20:49;98738.94;;;14.72;100.00
15914;BME280;8055;51.930;8.840;2022-09-16T13:23:22;98732.53;;;14.96;98.22
15914;BME280;8055;51.930;8.840;2022-09-16T13:31:14;98722.28;;;15.40;92.30
15914;BME280;8055;51.930;8.840;2022-09-16T13:33:47;98719.69;;;15.57;87.75
15914;BME280;8055;51.930;8.840;2022-09-16T13:38:49;98712.66;;;15.80;82.94
15914;BME280;8055;51.930;8.840;2022-09-16T13:41:44;98696.38;;;15.96;82.64
15914;BME280;8055;51.930;8.840;2022-09-16T13:47:14;98710.78;;;16.15;79.85
15914;BME280;8055;51.930;8.840;2022-09-16T13:49:49;98712.47;;;16.05;77.62
15914;BME280;8055;51.930;8.840;2022-09-16T13:52:26;98711.59;;;15.81;75.95
15914;BME280;8055;51.930;8.840;2022-09-16T13:54:54;98716.38;;;15.55;75.22
15914;BME280;8055;51.930;8.840;2022-09-16T13:57:25;98713.66;;;15.55;79.05
15914;BME280;8055;51.930;8.840;2022-09-16T14:00:11;98718.75;;;15.52;77.30
15914;BME280;8055;51.930;8.840;2022-09-16T14:10:42;98692.69;;;15.49;71.48
15914;BME280;8055;51.930;8.840;2022-09-16T14:13:17;98682.78;;;15.36;73.42
15914;BME280;8055;51.930;8.840;2022-09-16T14:15:46;98678.69;;;15.27;72.82
15914;BME280;8055;51.930;8.840;2022-09-16T14:18:15;98676.91;;;15.21;74.44
15914;BME280;8055;51.930;8.840;2022-09-16T14:21:02;98674.28;;;15.26;74.85
15914;BME280;8055;51.930;8.840;2022-09-16T14:23:30;98678.34;;;15.35;74.47
15914;BME280;8055;51.930;8.840;2022-09-16T14:26:08;98676.84;;;15.51;73.74
15914;BME280;8055;51.930;8.840;2022-09-16T14:28:34;98671.03;;;15.59;75.14
15914;BME280;8055;51.930;8.840;2022-09-16T14:31:01;98659.31;;;15.70;72.17
15914;BME280;8055;51.930;8.840;2022-09-16T14:33:46;98674.91;;;15.82;71.55
15914;BME280;8055;51.930;8.840;2022-09-16T14:36:24;98661.72;;;15.90;69.58
15914;BME280;8055;51.930;8.840;2022-09-16T14:38:56;98663.25;;;15.98;67.03
15914;BME280;8055;51.930;8.840;2022-09-16T14:46:37;98673.88;;;16.06;63.99
15914;BME280;8055;51.930;8.840;2022-09-16T14:49:03;98666.59;;;16.00;62.52
15914;BME280;8055;51.930;8.840;2022-09-16T14:51:28;98672.56;;;16.21;61.55
15914;BME280;8055;51.930;8.840;2022-09-16T14:53:58;98655.16;;;16.27;61.25
15914;BME280;8055;51.930;8.840;2022-09-16T14:56:24;98669.56;;;16.34;60.16
15914;BME280;8055;51.930;8.840;2022-09-16T14:58:51;98662.38;;;16.45;58.84
15914;BME280;8055;51.930;8.840;2022-09-16T15:01:25;98669.84;;;16.73;58.67
15914;BME280;8055;51.930;8.840;2022-09-16T15:03:55;98669.63;;;17.15;57.91
15914;BME280;8055;51.930;8.840;2022-09-16T15:06:25;98671.78;;;17.58;56.96
15914;BME280;8055;51.930;8.840;2022-09-16T15:08:58;98664.88;;;17.89;57.83
15914;BME280;8055;51.930;8.840;2022-09-16T15:11:31;98672.81;;;17.86;56.46
15914;BME280;8055;51.930;8.840;2022-09-16T15:13:57;98664.50;;;17.35;57.76
15914;BME280;8055;51.930;8.840;2022-09-16T15:16:24;98663.09;;;17.04;58.34
15914;BME280;8055;51.930;8.840;2022-09-16T15:19:02;98668.34;;;16.77;58.71
15914;BME280;8055;51.930;8.840;2022-09-16T15:21:36;98670.03;;;16.42;60.17
15914;BME280;8055;51.930;8.840;2022-09-16T15:24:05;98678.38;;;16.12;59.89
15914;BME280;8055;51.930;8.840;2022-09-16T15:26:43;98706.00;;;15.87;61.16
15914;BME280;8055;51.930;8.840;2022-09-16T15:31:41;98735.97;;;14.92;62.64
15914;BME280;8055;51.930;8.840;2022-09-16T15:36:44;98731.88;;;13.96;70.62
15914;BME280;8055;51.930;8.840;2022-09-16T15:42:09;98720.19;;;14.32;74.21
15914;BME280;8055;51.930;8.840;2022-09-16T15:44:37;98717.31;;;14.89;71.83
15914;BME280;8055;51.930;8.840;2022-09-16T15:47:16;98716.88;;;15.03;70.25
15914;BME280;8055;51.930;8.840;2022-09-16T15:49:42;98716.84;;;14.73;70.91
15914;BME280;8055;51.930;8.840;2022-09-16T15:52:09;98714.75;;;14.50;71.92